Time;durP1;ratioP1;P1;durP2;ratioP2;P2;SDS_P1;SDS_P2;PMS_P1;PMS_P2;Temp;Humidity;BMP_temperature;BMP_pressure;BME280_temperature;BME280_humidity;BME280_pressure;Samples;Min_cycle;Max_cycle;Signal;HPM_P1;HPM_P2
2023/08/22 00:00:31;;;;;;;8.50;3.55;;;16.20;99.90;;;;;;4822322;29;20049;-64
2023/08/22 00:02:58;;;;;;;4.95;3.10;;;16.20;99.90;;;;;;4829764;29;20069;-63
2023/08/22 00:05:26;;;;;;;6.93;3.60;;;16.20;99.90;;;;;;4827040;29;20038;-65
2023/08/22 00:07:53;;;;;;;5.82;2.92;;;16.10;99.90;;;;;;4828232;29;20057;-62
2023/08/22 00:10:20;;;;;;;8.18;3.00;;;16.10;99.90;;;;;;4826587;29;20571;-64
2023/08/22 00:12:47;;;;;;;10.02;4.10;;;16.10;99.90;;;;;;4827212;29;20089;-64
2023/08/22 00:15:14;;;;;;;6.43;2.85;;;16.10;99.90;;;;;;4824932;29;20298;-63
2023/08/22 00:17:42;;;;;;;7.93;3.30;;;16.10;99.90;;;;;;4823241;29;20496;-68
2023/08/22 00:20:13;;;;;;;9.48;3.85;;;16.10;99.90;;;;;;4826408;29;20132;-65
2023/08/22 00:22:41;;;;;;;6.50;2.63;;;16.10;99.90;;;;;;4830030;29;20087;-62
2023/08/22 00:25:09;;;;;;;10.02;3.95;;;16.00;99.90;;;;;;4827095;29;20053;-61
2023/08/22 00:27:37;;;;;;;6.22;2.53;;;16.00;99.90;;;;;;4826153;29;20046;-64
2023/08/22 00:30:06;;;;;;;14.20;4.32;;;16.00;99.90;;;;;;4822678;29;20054;-62
2023/08/22 00:32:33;;;;;;;3.22;2.15;;;15.90;99.90;;;;;;4826538;29;20062;-65
2023/08/22 00:35:00;;;;;;;10.65;3.38;;;16.00;99.90;;;;;;4824455;29;20068;-68
2023/08/22 00:37:28;;;;;;;4.93;2.67;;;15.90;99.90;;;;;;4826433;29;20541;-65
2023/08/22 00:39:55;;;;;;;6.50;2.95;;;15.90;99.90;;;;;;4830393;29;21435;-64
2023/08/22 00:42:22;;;;;;;3.05;2.25;;;15.90;99.90;;;;;;4810458;29;20057;-65
2023/08/22 00:44:49;;;;;;;5.82;2.45;;;15.90;99.90;;;;;;4823597;29;20069;-63
2023/08/22 00:47:18;;;;;;;4.18;3.15;;;15.90;99.90;;;;;;4826074;29;20098;-61
2023/08/22 00:49:45;;;;;;;6.82;3.33;;;15.90;99.90;;;;;;4828692;29;20679;-64
2023/08/22 00:52:13;;;;;;;7.45;3.70;;;15.90;99.90;;;;;;4822345;29;20062;-66
2023/08/22 00:54:41;;;;;;;7.47;2.92;;;15.90;99.90;;;;;;4824090;29;20513;-63
2023/08/22 00:57:08;;;;;;;7.35;3.85;;;15.80;99.90;;;;;;4823878;29;20083;-65
2023/08/22 00:59:37;;;;;;;11.88;3.75;;;15.80;99.90;;;;;;4825578;29;20432;-67
2023/08/22 01:02:07;;;;;;;3.63;3.13;;;15.80;99.90;;;;;;4822829;29;20062;-67
2023/08/22 01:04:34;;;;;;;7.60;3.03;;;15.80;99.90;;;;;;4827935;29;20050;-68
2023/08/22 01:07:02;;;;;;;6.80;4.20;;;15.80;99.90;;;;;;4823478;29;20301;-61
2023/08/22 01:09:37;;;;;;;7.95;3.33;;;15.70;99.90;;;;;;4826647;29;20527;-67
2023/08/22 01:12:27;;;;;;;3.72;2.95;;;15.70;99.90;;;;;;4828686;29;20061;-62
2023/08/22 01:15:00;;;;;;;5.18;2.88;;;15.70;99.90;;;;;;4829366;29;20114;-64
2023/08/22 01:17:28;;;;;;;4.88;3.00;;;15.70;99.90;;;;;;4825434;29;20058;-67
2023/08/22 01:19:55;;;;;;;3.20;2.72;;;15.70;99.90;;;;;;4830248;29;20547;-68
2023/08/22 01:22:26;;;;;;;7.50;2.78;;;15.60;99.90;;;;;;4825532;29;20066;-66
2023/08/22 01:24:53;;;;;;;5.80;3.40;;;15.60;99.90;;;;;;4828093;29;20050;-65
2023/08/22 01:27:26;;;;;;;5.15;2.85;;;15.60;99.90;;;;;;4828606;29;20073;-68
2023/08/22 01:30:04;;;;;;;7.13;4.28;;;15.60;99.90;;;;;;4825845;29;20146;-64
2023/08/22 01:32:39;;;;;;;5.78;3.45;;;15.60;99.90;;;;;;4828353;29;20802;-64
2023/08/22 01:35:11;;;;;;;7.72;2.72;;;15.50;99.90;;;;;;4815714;29;20054;-61
2023/08/22 01:37:41;;;;;;;5.93;2.95;;;15.50;99.90;;;;;;4827301;29;20596;-63
2023/08/22 01:40:10;;;;;;;6.43;3.30;;;15.50;99.90;;;;;;4823598;29;20055;-64
2023/08/22 01:42:38;;;;;;;8.60;2.92;;;15.50;99.90;;;;;;4825577;29;20085;-72
2023/08/22 01:45:05;;;;;;;6.50;3.67;;;15.50;99.90;;;;;;4828490;29;20041;-66
2023/08/22 01:47:32;;;;;;;8.35;4.15;;;15.50;99.90;;;;;;4822792;29;20095;-65
2023/08/22 01:49:59;;;;;;;5.50;3.58;;;15.50;99.90;;;;;;4824687;29;20053;-65
2023/08/22 01:52:26;;;;;;;6.55;3.10;;;15.50;99.90;;;;;;4823096;29;20042;-68
2023/08/22 01:54:53;;;;;;;10.00;3.75;;;15.50;99.90;;;;;;4827311;29;20132;-65
2023/08/22 01:57:20;;;;;;;5.35;2.88;;;15.40;99.90;;;;;;4821996;29;20046;-61
2023/08/22 01:59:47;;;;;;;8.23;4.10;;;15.50;99.90;;;;;;4820517;29;20058;-67
2023/08/22 02:02:14;;;;;;;5.70;3.10;;;15.40;99.90;;;;;;4827064;29;20151;-61
2023/08/22 02:04:41;;;;;;;10.35;3.70;;;15.40;99.90;;;;;;4825361;29;20485;-62
2023/08/22 02:07:08;;;;;;;7.80;4.20;;;15.40;99.90;;;;;;4809205;29;20054;-64
2023/08/22 02:09:35;;;;;;;9.43;4.10;;;15.40;99.90;;;;;;4829058;29;20090;-64
2023/08/22 02:12:02;;;;;;;6.75;2.72;;;15.40;99.90;;;;;;4827813;29;20083;-68
2023/08/22 02:14:29;;;;;;;7.85;3.15;;;15.40;99.90;;;;;;4819947;29;20059;-64
2023/08/22 02:16:59;;;;;;;14.80;5.72;;;15.40;99.90;;;;;;4823430;29;20082;-67
2023/08/22 02:19:25;;;;;;;12.05;4.60;;;15.30;99.90;;;;;;4820350;29;20473;-65
2023/08/22 02:21:52;;;;;;;7.28;3.03;;;15.30;99.90;;;;;;4827190;29;20234;-70
2023/08/22 02:24:19;;;;;;;4.88;2.40;;;15.30;99.90;;;;;;4807191;29;20412;-69
2023/08/22 02:26:47;;;;;;;7.40;3.13;;;15.40;99.90;;;;;;4814993;29;20549;-64
2023/08/22 02:29:14;;;;;;;14.85;4.20;;;15.30;99.90;;;;;;4817353;29;20042;-63
2023/08/22 02:31:40;;;;;;;7.30;2.85;;;15.30;99.90;;;;;;4823000;29;20129;-65
2023/08/22 02:34:07;;;;;;;10.20;3.45;;;15.30;99.90;;;;;;4828569;29;20062;-62
2023/08/22 02:36:34;;;;;;;9.23;3.25;;;15.30;99.90;;;;;;4830528;29;20070;-66
2023/08/22 02:39:02;;;;;;;10.35;3.22;;;15.30;99.90;;;;;;4827610;29;20053;-70
2023/08/22 02:41:29;;;;;;;9.07;3.10;;;15.30;99.90;;;;;;4829513;29;20061;-64
2023/08/22 02:43:56;;;;;;;6.15;2.92;;;15.30;99.90;;;;;;4827483;29;20053;-67
2023/08/22 02:46:23;;;;;;;8.32;3.38;;;15.30;99.90;;;;;;4817475;29;20114;-61
2023/08/22 02:48:50;;;;;;;6.88;3.55;;;15.30;99.90;;;;;;4811967;29;20066;-61
2023/08/22 02:51:17;;;;;;;6.70;3.75;;;15.30;99.90;;;;;;4814442;29;20081;-64
2023/08/22 02:53:44;;;;;;;7.32;3.90;;;15.30;99.90;;;;;;4826369;29;20050;-64
2023/08/22 02:56:11;;;;;;;6.68;2.58;;;15.30;99.90;;;;;;4818458;29;20050;-65
2023/08/22 02:58:38;;;;;;;13.02;5.18;;;15.20;99.90;;;;;;4828868;29;20090;-67
2023/08/22 03:01:07;;;;;;;9.23;4.22;;;15.20;99.90;;;;;;4827465;29;20073;-62
2023/08/22 03:03:34;;;;;;;12.45;4.38;;;15.20;99.90;;;;;;4822627;29;20054;-68
2023/08/22 03:06:01;;;;;;;7.38;2.80;;;15.20;99.90;;;;;;4816791;29;20115;-66
2023/08/22 03:08:28;;;;;;;6.10;3.08;;;15.20;99.90;;;;;;4822451;29;20429;-62
2023/08/22 03:11:02;;;;;;;8.50;3.22;;;15.20;99.90;;;;;;4821051;29;20474;-64
2023/08/22 03:13:30;;;;;;;7.68;3.30;;;15.20;99.90;;;;;;4820113;29;20085;-66
2023/08/22 03:15:58;;;;;;;6.25;2.55;;;15.20;99.90;;;;;;4812568;29;20054;-61
2023/08/22 03:18:27;;;;;;;6.25;3.38;;;15.20;99.90;;;;;;4825900;29;20054;-65
2023/08/22 03:20:56;;;;;;;12.15;3.53;;;15.20;99.90;;;;;;4812614;29;20107;-66
2023/08/22 03:23:24;;;;;;;8.95;2.95;;;15.20;99.90;;;;;;4825699;29;20061;-63
2023/08/22 03:25:58;;;;;;;8.07;3.95;;;15.10;99.90;;;;;;4823752;29;20085;-63
2023/08/22 03:28:26;;;;;;;9.10;3.17;;;15.20;99.90;;;;;;4820943;29;20510;-65
2023/08/22 03:30:58;;;;;;;6.38;2.58;;;15.20;99.90;;;;;;4804416;29;20061;-61
2023/08/22 03:33:25;;;;;;;7.13;3.63;;;15.20;99.90;;;;;;4807074;29;20149;-63
2023/08/22 03:35:54;;;;;;;6.13;3.42;;;15.10;99.90;;;;;;4823362;29;20058;-62
2023/08/22 03:38:22;;;;;;;5.78;3.15;;;15.10;99.90;;;;;;4809316;29;20551;-61
2023/08/22 03:40:50;;;;;;;12.93;3.58;;;15.10;99.90;;;;;;4825467;29;20047;-61
2023/08/22 03:43:18;;;;;;;5.03;2.40;;;15.10;99.90;;;;;;4820514;29;20268;-64
2023/08/22 03:45:46;;;;;;;9.60;3.47;;;15.10;99.90;;;;;;4822214;29;20086;-64
2023/08/22 03:48:13;;;;;;;4.50;2.78;;;15.20;99.90;;;;;;4808810;29;20077;-68
2023/08/22 03:50:42;;;;;;;10.13;4.60;;;15.20;99.90;;;;;;4825182;29;20047;-62
2023/08/22 03:53:10;;;;;;;8.68;3.05;;;15.10;99.90;;;;;;4824027;29;20065;-61
2023/08/22 03:55:38;;;;;;;9.70;3.58;;;15.20;99.90;;;;;;4824888;29;20051;-66
2023/08/22 03:58:05;;;;;;;6.10;2.85;;;15.20;99.90;;;;;;4807132;29;20058;-63
2023/08/22 04:00:32;;;;;;;11.55;3.78;;;15.20;99.90;;;;;;4807749;29;20054;-62
2023/08/22 04:02:59;;;;;;;8.52;3.20;;;15.20;99.90;;;;;;4822252;29;20054;-68
2023/08/22 04:05:26;;;;;;;9.40;3.55;;;15.30;99.90;;;;;;4806419;29;20058;-62
2023/08/22 04:07:53;;;;;;;7.93;3.25;;;15.20;99.90;;;;;;4810448;29;20062;-66
2023/08/22 04:10:21;;;;;;;8.77;3.22;;;15.30;99.90;;;;;;4810847;29;20034;-67
2023/08/22 04:12:48;;;;;;;5.45;2.55;;;15.40;99.90;;;;;;4827596;29;20083;-67
2023/08/22 04:15:15;;;;;;;5.38;3.53;;;15.40;99.90;;;;;;4812298;29;20062;-64
2023/08/22 04:17:42;;;;;;;8.50;4.57;;;15.40;99.90;;;;;;4823386;29;20054;-65
2023/08/22 04:20:11;;;;;;;6.03;2.83;;;15.50;99.90;;;;;;4826949;29;20702;-64
2023/08/22 04:22:41;;;;;;;11.68;3.65;;;15.50;99.90;;;;;;4828123;29;20082;-64
2023/08/22 04:25:09;;;;;;;7.13;3.53;;;15.50;99.90;;;;;;4831691;29;20054;-63
2023/08/22 04:27:38;;;;;;;7.22;2.60;;;15.50;99.90;;;;;;4826887;29;20145;-68
2023/08/22 04:30:06;;;;;;;7.82;2.75;;;15.60;99.90;;;;;;4828072;29;20488;-66
2023/08/22 04:32:34;;;;;;;4.53;2.78;;;15.50;99.90;;;;;;4824695;29;20148;-64
2023/08/22 04:35:02;;;;;;;4.13;2.92;;;15.50;99.90;;;;;;4825669;29;20076;-64
2023/08/22 04:37:31;;;;;;;3.30;2.35;;;15.50;99.90;;;;;;4822303;29;20046;-64
2023/08/22 04:39:59;;;;;;;5.07;3.00;;;15.50;99.90;;;;;;4828794;29;20884;-63
2023/08/22 04:43:01;;;;;;;9.27;3.83;;;15.50;99.90;;;;;;4820590;29;20057;-65
2023/08/22 04:45:28;;;;;;;9.18;4.20;;;15.60;99.90;;;;;;4826393;29;20707;-64
2023/08/22 04:47:55;;;;;;;6.28;2.78;;;15.60;99.90;;;;;;4821996;29;20046;-61
2023/08/22 04:50:22;;;;;;;6.03;2.50;;;15.60;99.90;;;;;;4824854;29;20050;-62
2023/08/22 04:52:49;;;;;;;4.45;2.22;;;15.60;99.90;;;;;;4830020;29;20081;-62
2023/08/22 04:55:16;;;;;;;3.70;2.72;;;15.60;99.90;;;;;;4826005;29;20065;-68
2023/08/22 04:57:43;;;;;;;5.97;2.60;;;15.60;99.90;;;;;;4824030;29;20054;-61
2023/08/22 05:00:11;;;;;;;4.82;3.35;;;15.60;99.90;;;;;;4825682;29;20051;-64
2023/08/22 05:02:38;;;;;;;7.55;3.25;;;15.60;99.90;;;;;;4816918;29;20097;-63
2023/08/22 05:05:06;;;;;;;3.75;2.17;;;15.60;99.90;;;;;;4823420;29;20169;-63
2023/08/22 05:07:33;;;;;;;5.50;2.85;;;15.60;99.90;;;;;;4812548;29;20696;-63
2023/08/22 05:10:00;;;;;;;4.35;2.60;;;15.70;99.90;;;;;;4825787;29;20054;-67
2023/08/22 05:12:27;;;;;;;8.45;2.42;;;15.60;99.90;;;;;;4826627;29;20552;-67
2023/08/22 05:14:58;;;;;;;5.05;2.78;;;15.60;99.90;;;;;;4824241;29;20050;-61
2023/08/22 05:17:25;;;;;;;;;;;15.60;99.90;;;;;;4816450;29;20785;-67
2023/08/22 05:19:52;;;;;;;8.32;2.83;;;15.60;99.90;;;;;;4824900;29;19924;-64
2023/08/22 05:22:19;;;;;;;8.02;2.38;;;15.60;99.90;;;;;;4825946;29;20621;-66
2023/08/22 05:24:48;;;;;;;9.15;3.60;;;15.60;99.90;;;;;;4820279;29;20149;-64
2023/08/22 05:27:16;;;;;;;7.60;3.63;;;15.70;99.90;;;;;;4829669;29;20045;-63
2023/08/22 05:29:43;;;;;;;4.75;2.80;;;15.70;99.90;;;;;;4825607;29;20403;-61
2023/08/22 05:32:11;;;;;;;5.53;4.15;;;15.60;99.90;;;;;;4826481;29;20053;-66
2023/08/22 05:34:38;;;;;;;8.15;3.35;;;15.70;99.90;;;;;;4821863;29;20062;-63
2023/08/22 05:37:05;;;;;;;9.18;3.47;;;15.70;99.90;;;;;;4824085;29;20050;-64
2023/08/22 05:39:32;;;;;;;7.53;3.72;;;15.70;99.90;;;;;;4820975;29;20085;-65
2023/08/22 05:41:59;;;;;;;6.43;3.05;;;15.80;99.90;;;;;;4826179;29;20553;-61
2023/08/22 05:44:26;;;;;;;9.13;2.83;;;15.80;99.90;;;;;;4809458;29;20085;-69
2023/08/22 05:46:53;;;;;;;6.30;2.90;;;15.70;99.90;;;;;;4824591;29;20050;-65
2023/08/22 05:49:24;;;;;;;6.03;2.80;;;15.70;99.90;;;;;;4823869;29;20738;-61
2023/08/22 05:52:01;;;;;;;4.05;2.95;;;15.70;99.90;;;;;;4824529;29;20058;-69
2023/08/22 05:54:28;;;;;;;6.68;2.75;;;15.70;99.90;;;;;;4823308;29;20042;-68
2023/08/22 05:56:56;;;;;;;6.28;3.63;;;15.80;99.90;;;;;;4820165;29;20109;-63
2023/08/22 05:59:23;;;;;;;4.50;2.33;;;15.80;99.90;;;;;;4823608;29;20042;-65
2023/08/22 06:01:51;;;;;;;3.40;3.00;;;15.80;99.90;;;;;;4824336;29;20201;-67
2023/08/22 06:04:19;;;;;;;6.90;3.45;;;15.80;99.90;;;;;;4818117;29;20057;-64
2023/08/22 06:06:46;;;;;;;7.88;2.88;;;15.80;99.90;;;;;;4825706;29;20421;-64
2023/08/22 06:09:13;;;;;;;6.15;3.63;;;15.80;99.90;;;;;;4822362;29;20050;-65
2023/08/22 06:11:40;;;;;;;11.90;4.25;;;15.80;99.90;;;;;;4821523;29;20055;-68
2023/08/22 06:14:07;;;;;;;3.85;3.00;;;15.80;99.90;;;;;;4819132;29;20061;-63
2023/08/22 06:16:34;;;;;;;3.95;2.25;;;15.80;99.90;;;;;;4826234;29;20046;-63
2023/08/22 06:19:01;;;;;;;5.53;2.17;;;15.90;99.90;;;;;;4824428;29;20160;-67
2023/08/22 06:21:28;;;;;;;9.25;2.83;;;15.90;99.90;;;;;;4821697;29;20050;-70
2023/08/22 06:23:56;;;;;;;5.53;3.13;;;16.00;99.90;;;;;;4822850;29;20050;-65
2023/08/22 06:26:23;;;;;;;6.35;2.88;;;16.00;99.90;;;;;;4825736;29;20152;-62
2023/08/22 06:28:51;;;;;;;5.43;3.45;;;16.10;99.90;;;;;;4825452;29;20054;-65
2023/08/22 06:31:18;;;;;;;3.80;2.00;;;16.10;99.90;;;;;;4828206;29;20047;-67
2023/08/22 06:33:45;;;;;;;4.45;2.08;;;16.10;99.90;;;;;;4813540;29;20389;-64
2023/08/22 06:36:12;;;;;;;4.60;2.67;;;16.20;99.90;;;;;;4805816;29;20054;-64
2023/08/22 06:38:39;;;;;;;9.88;4.40;;;16.30;99.90;;;;;;4822009;29;20062;-68
2023/08/22 06:41:07;;;;;;;11.05;2.85;;;16.40;99.90;;;;;;4826555;29;20058;-65
2023/08/22 06:43:34;;;;;;;6.40;3.17;;;16.40;99.90;;;;;;4810911;29;20526;-68
2023/08/22 06:46:02;;;;;;;5.55;3.67;;;16.50;99.90;;;;;;4808489;29;20054;-67
2023/08/22 06:48:29;;;;;;;7.03;2.72;;;16.50;99.90;;;;;;4823776;29;20058;-61
2023/08/22 06:51:08;;;;;;;5.93;2.47;;;16.50;99.90;;;;;;4821875;29;20686;-62
2023/08/22 06:53:35;;;;;;;7.38;3.78;;;16.40;99.90;;;;;;4823942;29;20049;-62
2023/08/22 06:56:02;;;;;;;5.97;3.25;;;16.40;99.90;;;;;;4828883;29;20057;-65
2023/08/22 06:58:28;;;;;;;4.80;2.60;;;16.50;99.90;;;;;;4826043;29;20129;-65
2023/08/22 07:00:55;;;;;;;7.13;2.60;;;16.50;99.90;;;;;;4825969;29;20052;-61
2023/08/22 07:03:22;;;;;;;7.47;2.58;;;16.60;99.90;;;;;;4821423;29;20046;-66
2023/08/22 07:05:52;;;;;;;3.13;2.70;;;16.70;99.90;;;;;;4815962;29;20535;-63
2023/08/22 07:08:20;;;;;;;10.50;2.90;;;16.70;99.90;;;;;;4825032;29;20072;-62
2023/08/22 07:10:46;;;;;;;7.00;4.13;;;16.80;99.90;;;;;;4823172;29;20073;-67
2023/08/22 07:13:14;;;;;;;3.88;3.35;;;16.90;99.90;;;;;;4822357;29;20074;-62
2023/08/22 07:15:42;;;;;;;8.55;2.70;;;16.90;99.90;;;;;;4823639;29;20054;-62
2023/08/22 07:18:09;;;;;;;7.75;3.03;;;16.90;99.90;;;;;;4824291;29;20420;-62
2023/08/22 07:20:36;;;;;;;6.43;3.25;;;16.80;99.90;;;;;;4824856;29;20048;-68
2023/08/22 07:23:03;;;;;;;4.72;3.00;;;16.80;99.90;;;;;;4827847;29;20046;-67
2023/08/22 07:25:30;;;;;;;5.00;2.30;;;16.80;99.90;;;;;;4826491;29;20146;-63
2023/08/22 07:27:57;;;;;;;5.63;2.97;;;16.80;99.90;;;;;;4828040;29;20046;-65
2023/08/22 07:30:24;;;;;;;7.57;3.30;;;16.80;99.90;;;;;;4825037;29;20050;-65
2023/08/22 07:32:50;;;;;;;4.45;2.67;;;16.70;99.90;;;;;;4831005;29;20133;-65
2023/08/22 07:35:17;;;;;;;5.55;4.75;;;16.70;99.90;;;;;;4829362;29;20038;-66
2023/08/22 07:37:44;;;;;;;4.90;2.65;;;16.80;99.90;;;;;;4830324;29;20061;-64
2023/08/22 07:40:11;;;;;;;11.63;3.35;;;16.90;99.90;;;;;;4825156;29;20411;-61
2023/08/22 07:42:38;;;;;;;5.13;2.50;;;16.90;99.90;;;;;;4826715;29;20059;-69
2023/08/22 07:45:06;;;;;;;4.28;2.33;;;17.00;99.90;;;;;;4829920;29;20128;-62
2023/08/22 07:47:33;;;;;;;3.30;2.53;;;17.00;99.90;;;;;;4829850;29;20115;-70
2023/08/22 07:50:00;;;;;;;10.20;3.55;;;16.90;99.90;;;;;;4826097;29;20536;-68
2023/08/22 07:52:27;;;;;;;4.30;2.47;;;16.90;99.90;;;;;;4823565;29;20078;-63
2023/08/22 07:54:54;;;;;;;4.32;3.30;;;16.90;99.90;;;;;;4827160;29;20057;-64
2023/08/22 07:57:21;;;;;;;5.72;2.60;;;16.90;99.90;;;;;;4828696;29;20185;-68
2023/08/22 07:59:48;;;;;;;8.60;2.63;;;17.00;99.90;;;;;;4826190;29;20131;-66
2023/08/22 08:02:15;;;;;;;5.65;2.65;;;17.10;99.90;;;;;;4825121;29;20889;-67
2023/08/22 08:04:42;;;;;;;9.68;3.67;;;17.20;99.90;;;;;;4827740;29;20758;-62
2023/08/22 08:07:09;;;;;;;9.10;2.78;;;17.30;99.90;;;;;;4830268;29;20221;-64
2023/08/22 08:09:36;;;;;;;8.38;3.05;;;17.20;99.90;;;;;;4821882;29;20058;-64
2023/08/22 08:12:03;;;;;;;4.20;2.45;;;17.30;99.90;;;;;;4826871;29;20082;-65
2023/08/22 08:14:31;;;;;;;3.05;2.10;;;17.30;99.90;;;;;;4828476;29;20575;-68
2023/08/22 08:16:58;;;;;;;7.00;3.60;;;17.30;99.90;;;;;;4826676;29;20050;-66
2023/08/22 08:19:26;;;;;;;6.95;2.83;;;17.30;99.90;;;;;;4829939;29;20046;-72
2023/08/22 08:21:53;;;;;;;3.08;1.98;;;17.20;99.90;;;;;;4826528;29;20046;-62
2023/08/22 08:24:20;;;;;;;4.18;3.08;;;17.20;99.90;;;;;;4829795;29;20474;-64
2023/08/22 08:26:48;;;;;;;4.13;2.55;;;17.20;99.90;;;;;;4826553;29;20145;-62
2023/08/22 08:29:16;;;;;;;5.78;3.10;;;17.20;99.90;;;;;;4827288;29;20046;-65
2023/08/22 08:31:43;;;;;;;5.07;2.63;;;17.20;99.90;;;;;;4827694;29;20137;-65
2023/08/22 08:34:10;;;;;;;9.70;3.78;;;17.20;99.90;;;;;;4824401;29;20520;-63
2023/08/22 08:36:36;;;;;;;5.13;2.30;;;17.20;99.90;;;;;;4827533;29;20103;-67
2023/08/22 08:39:03;;;;;;;6.90;3.50;;;17.20;99.90;;;;;;4825919;29;20288;-66
2023/08/22 08:41:33;;;;;;;5.10;2.55;;;17.20;99.90;;;;;;4831399;29;20089;-66
2023/08/22 08:44:03;;;;;;;7.03;3.05;;;17.20;99.90;;;;;;4825654;29;20047;-61
2023/08/22 08:46:30;;;;;;;6.47;2.95;;;17.20;99.90;;;;;;4829941;29;20498;-66
2023/08/22 08:48:58;;;;;;;8.98;3.28;;;17.10;99.90;;;;;;4819991;29;20053;-64
2023/08/22 08:51:26;;;;;;;4.15;2.33;;;17.10;99.90;;;;;;4826769;29;20046;-62
2023/08/22 08:53:54;;;;;;;8.07;2.83;;;17.20;99.90;;;;;;4828765;29;20141;-67
2023/08/22 08:56:21;;;;;;;9.20;3.58;;;17.10;99.90;;;;;;4829561;29;20144;-66
2023/08/22 08:58:50;;;;;;;7.32;2.83;;;17.20;99.90;;;;;;4824699;29;20509;-64
2023/08/22 09:01:18;;;;;;;10.50;2.95;;;17.20;99.90;;;;;;4823589;29;20057;-68
2023/08/22 09:03:46;;;;;;;8.25;4.05;;;17.20;99.90;;;;;;4823685;29;20050;-66
2023/08/22 09:06:13;;;;;;;6.95;3.35;;;17.20;99.90;;;;;;4821549;29;20128;-67
2023/08/22 09:09:00;;;;;;;7.32;3.10;;;17.30;99.90;;;;;;4820739;29;20056;-64
2023/08/22 09:11:27;;;;;;;6.57;2.85;;;17.40;99.90;;;;;;4826481;29;20114;-64
2023/08/22 09:13:55;;;;;;;6.00;4.07;;;17.50;99.90;;;;;;4824650;29;20292;-66
2023/08/22 09:16:24;;;;;;;15.02;2.90;;;17.60;99.90;;;;;;4829212;29;20070;-65
2023/08/22 09:18:51;;;;;;;9.93;3.42;;;17.60;99.90;;;;;;4830149;29;20511;-61
2023/08/22 09:21:18;;;;;;;4.10;3.50;;;17.60;99.90;;;;;;4828486;29;20073;-67
2023/08/22 09:23:49;;;;;;;4.45;2.88;;;17.60;99.90;;;;;;4825225;29;20585;-63
2023/08/22 09:26:22;;;;;;;8.32;3.13;;;17.60;99.90;;;;;;4831036;29;20042;-66
2023/08/22 09:28:50;;;;;;;10.10;3.63;;;17.70;99.90;;;;;;4823295;29;20062;-62
2023/08/22 09:31:26;;;;;;;7.00;4.05;;;17.80;99.90;;;;;;4827440;29;20081;-64
2023/08/22 09:33:53;;;;;;;7.03;3.10;;;17.80;99.90;;;;;;4825597;29;20041;-65
2023/08/22 09:36:21;;;;;;;7.38;2.38;;;17.80;99.90;;;;;;4825091;29;20061;-65
2023/08/22 09:38:55;;;;;;;6.40;3.08;;;17.80;99.90;;;;;;4827193;29;20042;-62
2023/08/22 09:41:23;;;;;;;5.05;2.40;;;17.80;99.90;;;;;;4824146;29;20050;-66
2023/08/22 09:43:58;;;;;;;6.63;3.95;;;17.80;99.90;;;;;;4824156;29;20056;-65
2023/08/22 09:46:26;;;;;;;4.55;2.70;;;17.80;99.90;;;;;;4825283;29;20507;-65
2023/08/22 09:48:57;;;;;;;7.95;3.05;;;17.80;99.90;;;;;;4825666;29;20570;-68
2023/08/22 09:51:24;;;;;;;7.32;3.20;;;17.80;99.90;;;;;;4825064;29;20053;-64
2023/08/22 09:53:52;;;;;;;6.95;2.80;;;17.90;99.90;;;;;;4824600;29;20493;-65
2023/08/22 09:56:20;;;;;;;11.07;3.38;;;18.10;99.90;;;;;;4829953;29;20073;-65
2023/08/22 09:58:47;;;;;;;7.85;4.32;;;18.20;99.90;;;;;;4826705;29;20130;-64
2023/08/22 10:01:16;;;;;;;4.50;3.05;;;18.30;99.90;;;;;;4827123;29;20047;-63
2023/08/22 10:03:44;;;;;;;6.50;2.50;;;18.30;99.90;;;;;;4821686;29;20675;-62
2023/08/22 10:06:13;;;;;;;3.75;2.28;;;18.50;99.90;;;;;;4825763;29;20129;-65
2023/08/22 10:08:45;;;;;;;4.05;2.92;;;18.70;99.90;;;;;;4822878;29;20069;-68
2023/08/22 10:11:14;;;;;;;5.90;3.22;;;18.70;99.90;;;;;;4826390;29;20062;-66
2023/08/22 10:13:43;;;;;;;9.77;2.65;;;18.80;99.90;;;;;;4822696;29;20140;-66
2023/08/22 10:16:10;;;;;;;3.63;2.28;;;18.90;99.90;;;;;;4828090;29;20061;-65
2023/08/22 10:18:38;;;;;;;6.85;2.70;;;19.00;99.90;;;;;;4824881;29;20061;-68
2023/08/22 10:21:05;;;;;;;6.03;2.75;;;19.00;99.90;;;;;;4821780;29;20679;-66
2023/08/22 10:23:44;;;;;;;7.63;2.90;;;18.90;99.90;;;;;;4824810;29;20481;-67
2023/08/22 10:26:11;;;;;;;11.68;3.25;;;18.90;99.90;;;;;;4824453;29;20049;-63
2023/08/22 10:28:42;;;;;;;6.93;3.50;;;19.00;99.90;;;;;;4823646;29;20401;-67
2023/08/22 10:31:11;;;;;;;4.43;3.15;;;19.00;99.90;;;;;;4820374;29;20129;-67
2023/08/22 10:33:38;;;;;;;4.28;3.03;;;19.10;99.90;;;;;;4827364;29;20042;-66
2023/08/22 10:36:16;;;;;;;6.50;2.60;;;19.10;99.90;;;;;;4822803;29;20050;-66
2023/08/22 10:38:54;;;;;;;7.32;3.40;;;19.10;99.90;;;;;;4822489;29;20446;-65
2023/08/22 10:41:22;;;;;;;7.63;2.65;;;19.00;99.90;;;;;;4823263;29;20533;-63
2023/08/22 10:43:49;;;;;;;5.82;2.88;;;19.00;99.90;;;;;;4823275;29;20574;-62
2023/08/22 10:46:16;;;;;;;4.13;3.53;;;18.90;99.90;;;;;;4823776;29;20054;-68
2023/08/22 10:48:45;;;;;;;6.03;2.67;;;18.90;99.90;;;;;;4827747;29;20132;-66
2023/08/22 10:51:12;;;;;;;3.92;2.92;;;18.90;99.90;;;;;;4825266;29;20549;-63
2023/08/22 10:53:43;;;;;;;4.53;2.92;;;18.90;99.90;;;;;;4820402;29;20050;-66
2023/08/22 10:56:23;;;;;;;5.57;2.67;;;19.00;99.90;;;;;;4829063;29;20053;-66
2023/08/22 10:59:02;;;;;;;4.05;3.08;;;19.00;99.90;;;;;;4824870;29;20142;-64
2023/08/22 11:01:29;;;;;;;6.82;3.60;;;19.20;99.90;;;;;;4829272;29;20041;-65
2023/08/22 11:03:57;;;;;;;5.35;3.42;;;19.40;99.90;;;;;;4830192;29;20052;-65
2023/08/22 11:06:24;;;;;;;6.63;4.15;;;19.70;99.90;;;;;;4826040;29;20142;-64
2023/08/22 11:08:51;;;;;;;3.63;2.60;;;19.90;99.90;;;;;;4831044;29;20457;-66
2023/08/22 11:11:19;;;;;;;4.78;3.13;;;20.00;99.90;;;;;;4829617;29;20114;-68
2023/08/22 11:13:48;;;;;;;4.25;2.65;;;20.10;99.90;;;;;;4825951;29;20053;-64
2023/08/22 11:16:17;;;;;;;7.32;3.85;;;20.30;99.90;;;;;;4827257;29;20046;-68
2023/08/22 11:18:47;;;;;;;4.40;4.00;;;20.40;99.90;;;;;;4826566;29;20442;-61
2023/08/22 11:21:14;;;;;;;4.18;3.45;;;20.40;99.90;;;;;;4825546;29;20042;-62
2023/08/22 11:23:42;;;;;;;3.22;2.75;;;20.50;99.90;;;;;;4827776;29;20741;-63
2023/08/22 11:26:10;;;;;;;5.60;2.85;;;20.70;99.90;;;;;;4827842;29;20049;-61
2023/08/22 11:28:37;;;;;;;4.90;2.80;;;20.80;99.90;;;;;;4829512;29;20061;-67
2023/08/22 11:31:04;;;;;;;4.22;2.92;;;20.80;99.90;;;;;;4826477;29;20038;-63
2023/08/22 11:33:46;;;;;;;5.50;3.05;;;20.80;99.90;;;;;;4824352;29;20393;-62
2023/08/22 11:36:14;;;;;;;4.35;2.35;;;20.90;99.90;;;;;;4825070;29;20074;-63
2023/08/22 11:38:42;;;;;;;4.63;2.50;;;21.10;99.90;;;;;;4830816;29;20153;-63
2023/08/22 11:41:09;;;;;;;4.85;2.80;;;21.10;99.90;;;;;;4826176;29;20115;-65
2023/08/22 11:43:45;;;;;;;6.80;2.85;;;21.10;99.90;;;;;;4824457;29;20049;-63
2023/08/22 11:46:12;;;;;;;3.58;2.20;;;21.10;99.90;;;;;;4828686;29;20087;-63
2023/08/22 11:48:41;;;;;;;4.88;2.50;;;21.10;99.90;;;;;;4828863;29;20050;-66
2023/08/22 11:51:08;;;;;;;4.95;2.65;;;21.20;99.90;;;;;;4825084;29;20058;-62
2023/08/22 11:53:35;;;;;;;5.78;2.75;;;21.30;99.90;;;;;;4831849;29;20929;-61
2023/08/22 11:56:05;;;;;;;5.40;2.53;;;21.40;99.90;;;;;;4828762;29;20085;-62
2023/08/22 11:58:35;;;;;;;6.13;2.10;;;21.40;99.90;;;;;;4829240;29;20049;-66
2023/08/22 12:01:03;;;;;;;3.20;2.03;;;21.50;99.90;;;;;;4822692;29;20049;-61
2023/08/22 12:03:41;;;;;;;4.50;3.08;;;21.80;99.90;;;;;;4826827;29;20126;-66
2023/08/22 12:06:12;;;;;;;6.47;2.58;;;21.80;99.90;;;;;;4827235;29;20049;-65
2023/08/22 12:08:39;;;;;;;7.85;2.60;;;22.00;99.90;;;;;;4822114;29;20050;-67
2023/08/22 12:11:06;;;;;;;8.00;2.13;;;22.10;99.90;;;;;;4826392;29;20164;-68
2023/08/22 12:13:33;;;;;;;5.78;2.72;;;22.20;99.90;;;;;;4828044;29;20057;-68
2023/08/22 12:16:00;;;;;;;4.05;2.08;;;22.30;99.90;;;;;;4829772;29;20490;-67
2023/08/22 12:18:35;;;;;;;7.05;2.95;;;22.40;99.90;;;;;;4830303;29;20558;-63
2023/08/22 12:21:02;;;;;;;4.03;2.78;;;22.50;99.90;;;;;;4826335;29;20046;-63
2023/08/22 12:23:29;;;;;;;6.82;3.00;;;22.50;99.90;;;;;;4828776;29;20054;-66
2023/08/22 12:25:56;;;;;;;2.97;2.03;;;22.40;99.90;;;;;;4825905;29;20493;-62
2023/08/22 12:28:24;;;;;;;2.88;2.10;;;22.30;99.90;;;;;;4827771;29;20042;-65
2023/08/22 12:30:51;;;;;;;3.88;2.05;;;22.30;99.90;;;;;;4825038;29;20141;-67
2023/08/22 12:33:18;;;;;;;5.55;2.53;;;22.20;99.90;;;;;;4827025;29;20629;-65
2023/08/22 12:35:45;;;;;;;2.10;1.65;;;22.10;99.90;;;;;;4824609;29;20389;-64
2023/08/22 12:38:12;;;;;;;2.50;1.95;;;21.90;99.90;;;;;;4826377;29;20517;-66
2023/08/22 12:40:39;;;;;;;3.60;2.13;;;21.80;99.90;;;;;;4827135;29;20437;-65
2023/08/22 12:43:06;;;;;;;6.63;2.15;;;21.70;99.90;;;;;;4828722;29;20061;-64
2023/08/22 12:45:34;;;;;;;2.72;2.03;;;21.70;99.90;;;;;;4828422;29;20041;-64
2023/08/22 12:48:00;;;;;;;5.40;2.10;;;21.80;99.90;;;;;;4827872;29;20046;-66
2023/08/22 12:50:27;;;;;;;3.60;2.85;;;21.90;99.90;;;;;;4824895;29;20050;-67